Time;durP1;ratioP1;P1;durP2;ratioP2;P2;SDS_P1;SDS_P2;PMS_P1;PMS_P2;Temp;Humidity;BMP_temperature;BMP_pressure;BME280_temperature;BME280_humidity;BME280_pressure;Samples;Min_cycle;Max_cycle;Signal;HPM_P1;HPM_P2
2021/07/09 00:01:53;;;;;;;14.90;13.40;;;17.30;99.90;;;;;;5013977;28;20275;-67
2021/07/09 00:04:19;;;;;;;13.03;11.90;;;17.30;99.90;;;;;;5014164;28;20343;-67
2021/07/09 00:06:45;;;;;;;14.67;12.43;;;17.30;99.90;;;;;;5013917;28;20211;-67
2021/07/09 00:09:11;;;;;;;14.07;12.70;;;17.30;99.90;;;;;;5013687;28;20180;-66
2021/07/09 00:11:38;;;;;;;20.40;13.03;;;17.40;99.90;;;;;;5014044;28;20254;-66
2021/07/09 00:14:05;;;;;;;14.23;12.83;;;17.40;99.90;;;;;;5013534;28;20196;-66
2021/07/09 00:16:31;;;;;;;14.60;13.33;;;17.30;99.90;;;;;;5013802;28;20168;-66
2021/07/09 00:18:59;;;;;;;15.90;13.07;;;17.30;99.90;;;;;;5013580;28;20263;-67
2021/07/09 00:21:27;;;;;;;13.97;12.57;;;17.30;99.90;;;;;;5013771;28;20172;-67
2021/07/09 00:23:53;;;;;;;15.33;13.63;;;17.20;99.90;;;;;;5013393;28;20249;-67
2021/07/09 00:26:19;;;;;;;15.50;13.17;;;17.10;99.90;;;;;;5013624;28;20673;-66
2021/07/09 00:28:45;;;;;;;15.37;13.13;;;17.10;99.90;;;;;;5013475;28;20646;-67
2021/07/09 00:31:10;;;;;;;15.80;12.30;;;17.10;99.90;;;;;;5013651;28;20168;-66
2021/07/09 00:33:36;;;;;;;19.13;14.47;;;17.00;99.90;;;;;;5013615;28;20204;-66
2021/07/09 00:36:02;;;;;;;16.60;14.10;;;17.00;99.90;;;;;;5013313;28;20532;-67
2021/07/09 00:38:27;;;;;;;14.83;13.43;;;17.00;99.90;;;;;;5013337;28;20180;-67
2021/07/09 00:40:53;;;;;;;18.13;12.67;;;17.10;99.90;;;;;;5012199;28;20219;-66
2021/07/09 00:43:20;;;;;;;13.90;12.43;;;17.00;99.90;;;;;;5013337;28;20731;-66
2021/07/09 00:45:45;;;;;;;14.90;12.97;;;17.10;99.90;;;;;;5013020;28;20600;-66
2021/07/09 00:48:11;;;;;;;13.07;11.77;;;17.00;99.90;;;;;;5013239;28;20230;-66
2021/07/09 00:50:37;;;;;;;22.60;11.80;;;17.00;99.90;;;;;;5013130;28;20180;-67
2021/07/09 00:53:02;;;;;;;13.93;11.43;;;16.90;99.90;;;;;;5012301;28;20192;-66
2021/07/09 00:55:28;;;;;;;12.07;10.93;;;16.90;99.90;;;;;;5013014;28;20172;-66
2021/07/09 00:57:54;;;;;;;19.10;11.77;;;16.90;99.90;;;;;;5012698;28;20788;-67
2021/07/09 01:00:22;;;;;;;16.53;13.57;;;17.00;99.90;;;;;;5012860;28;20187;-66
2021/07/09 01:02:48;;;;;;;15.13;13.53;;;17.00;99.90;;;;;;5013090;28;20247;-66
2021/07/09 01:05:16;;;;;;;14.73;13.27;;;17.00;99.90;;;;;;5012756;28;20219;-67
2021/07/09 01:07:42;;;;;;;16.57;13.27;;;17.00;99.90;;;;;;5012720;28;20600;-66
2021/07/09 01:10:10;;;;;;;18.30;14.17;;;17.00;99.90;;;;;;5012587;28;20230;-67
2021/07/09 01:12:37;;;;;;;16.63;13.47;;;17.10;99.90;;;;;;5012855;28;20192;-66
2021/07/09 01:15:07;;;;;;;17.33;13.03;;;17.10;99.90;;;;;;5012557;28;20168;-66
2021/07/09 01:17:33;;;;;;;17.43;12.47;;;17.10;99.90;;;;;;5012193;28;20242;-66
2021/07/09 01:20:00;;;;;;;16.70;14.73;;;17.20;99.90;;;;;;5012397;28;20172;-66
2021/07/09 01:22:28;;;;;;;18.63;12.70;;;17.10;99.90;;;;;;5012678;28;20172;-67
2021/07/09 01:24:54;;;;;;;18.43;12.20;;;17.20;99.90;;;;;;5012376;28;20164;-67
2021/07/09 01:27:20;;;;;;;13.93;12.23;;;17.10;99.90;;;;;;5012437;28;20512;-67
2021/07/09 01:29:46;;;;;;;16.23;11.97;;;17.20;99.90;;;;;;5012498;28;20172;-67
2021/07/09 01:32:12;;;;;;;18.33;12.00;;;17.20;99.90;;;;;;5011967;28;20187;-66
2021/07/09 01:34:38;;;;;;;13.37;11.87;;;17.10;99.90;;;;;;5012648;28;20169;-66
2021/07/09 01:37:16;;;;;;;12.73;11.50;;;17.20;99.90;;;;;;5011890;28;20184;-66
2021/07/09 01:39:43;;;;;;;15.83;11.47;;;17.20;99.90;;;;;;5012476;28;20183;-67
2021/07/09 01:42:09;;;;;;;20.63;11.70;;;17.20;99.90;;;;;;5012181;28;20601;-66
2021/07/09 01:44:39;;;;;;;13.90;11.50;;;17.20;99.90;;;;;;5012305;28;20214;-66
2021/07/09 01:47:06;;;;;;;17.30;12.37;;;17.20;99.90;;;;;;5011783;28;20199;-66
2021/07/09 01:49:46;;;;;;;14.03;11.60;;;17.20;99.90;;;;;;5012280;28;20172;-66
2021/07/09 01:52:12;;;;;;;21.87;11.57;;;17.20;99.90;;;;;;5010768;28;20847;-66
2021/07/09 01:54:38;;;;;;;18.07;12.87;;;17.30;99.90;;;;;;5012334;28;20200;-67
2021/07/09 01:57:03;;;;;;;14.57;11.97;;;17.30;99.90;;;;;;5011699;28;20210;-67
2021/07/09 01:59:29;;;;;;;15.30;13.43;;;17.20;99.90;;;;;;5012168;28;20164;-66
2021/07/09 02:01:54;;;;;;;15.60;13.50;;;17.20;99.90;;;;;;5011912;28;20180;-67
2021/07/09 02:04:20;;;;;;;15.33;13.93;;;17.20;99.90;;;;;;5011990;28;20192;-66
2021/07/09 02:06:46;;;;;;;31.43;16.43;;;17.10;99.90;;;;;;5011614;28;20208;-66
2021/07/09 02:09:11;;;;;;;21.60;16.60;;;17.10;99.90;;;;;;5012992;28;20272;-70
2021/07/09 02:11:37;;;;;;;24.83;18.07;;;17.00;99.90;;;;;;5012631;28;20207;-68
2021/07/09 02:14:03;;;;;;;29.27;19.13;;;16.80;99.90;;;;;;5013093;28;20195;-70
2021/07/09 02:16:28;;;;;;;25.40;19.63;;;16.70;99.90;;;;;;5012834;28;20622;-71
2021/07/09 02:18:54;;;;;;;25.47;22.67;;;16.70;99.90;;;;;;5012851;28;20176;-70
2021/07/09 02:21:19;;;;;;;27.77;21.70;;;16.70;99.90;;;;;;5012771;28;20175;-69
2021/07/09 02:23:45;;;;;;;30.37;22.27;;;16.60;99.90;;;;;;5012570;28;20273;-67
2021/07/09 02:26:11;;;;;;;25.93;21.53;;;16.50;99.90;;;;;;5012325;28;20199;-69
2021/07/09 02:28:37;;;;;;;27.93;22.07;;;16.50;99.90;;;;;;5013063;28;20174;-71
2021/07/09 02:31:02;;;;;;;27.17;22.77;;;16.50;99.90;;;;;;5012665;28;20261;-69
2021/07/09 02:33:28;;;;;;;31.03;21.40;;;16.30;99.90;;;;;;5012677;28;20242;-68
2021/07/09 02:35:54;;;;;;;28.30;22.70;;;16.40;99.90;;;;;;5011993;28;20230;-69
2021/07/09 02:38:19;;;;;;;31.93;20.70;;;16.40;99.90;;;;;;5012813;28;20216;-71
2021/07/09 02:40:45;;;;;;;28.53;21.07;;;16.40;99.90;;;;;;5012439;28;20180;-70
2021/07/09 02:43:11;;;;;;;30.73;21.23;;;16.30;99.90;;;;;;5012814;28;20224;-72
2021/07/09 02:45:36;;;;;;;26.00;20.87;;;16.30;99.90;;;;;;5012448;28;20212;-72
2021/07/09 02:48:02;;;;;;;29.97;21.93;;;16.20;99.90;;;;;;5012410;28;20176;-70
2021/07/09 02:50:28;;;;;;;29.43;21.83;;;16.20;99.90;;;;;;5012182;28;20655;-68
2021/07/09 02:52:53;;;;;;;26.23;21.20;;;16.20;99.90;;;;;;5012415;28;20188;-68
2021/07/09 02:55:20;;;;;;;27.73;21.33;;;16.20;99.90;;;;;;5012492;28;20191;-70
2021/07/09 02:57:46;;;;;;;31.97;23.40;;;16.10;99.90;;;;;;5012557;28;20172;-69
2021/07/09 03:00:14;;;;;;;31.23;25.00;;;16.10;99.90;;;;;;5012013;28;20661;-70
2021/07/09 03:02:40;;;;;;;34.40;21.43;;;16.00;99.90;;;;;;5012595;28;20315;-72
2021/07/09 03:05:07;;;;;;;32.77;23.23;;;16.00;99.90;;;;;;5015603;28;20726;-71
2021/07/09 03:07:33;;;;;;;28.40;23.83;;;16.10;99.90;;;;;;5015588;28;20183;-71
2021/07/09 03:09:59;;;;;;;33.03;23.83;;;16.10;99.90;;;;;;5015999;28;20184;-72
2021/07/09 03:12:25;;;;;;;30.93;22.97;;;16.10;99.90;;;;;;5014813;28;20191;-70
2021/07/09 03:14:50;;;;;;;30.80;23.83;;;16.10;99.90;;;;;;5015906;28;20176;-67
2021/07/09 03:17:16;;;;;;;31.20;24.40;;;16.10;99.90;;;;;;5016012;28;20266;-69
2021/07/09 03:19:42;;;;;;;36.03;24.40;;;16.10;99.90;;;;;;5015532;28;20168;-69
2021/07/09 03:22:07;;;;;;;33.47;25.37;;;16.10;99.90;;;;;;5015982;28;20633;-71
2021/07/09 03:24:33;;;;;;;34.87;24.10;;;16.10;99.90;;;;;;5015735;28;20200;-70
2021/07/09 03:26:58;;;;;;;33.83;24.63;;;16.10;99.90;;;;;;5015805;28;20246;-71
2021/07/09 03:29:24;;;;;;;39.03;25.17;;;16.10;99.90;;;;;;5015834;28;20268;-71
2021/07/09 03:31:50;;;;;;;28.60;23.43;;;16.10;99.90;;;;;;5015820;28;20174;-68
2021/07/09 03:34:16;;;;;;;27.23;23.40;;;16.10;99.90;;;;;;5015643;28;20192;-71
2021/07/09 03:36:44;;;;;;;32.10;24.07;;;16.20;99.90;;;;;;5015372;28;20588;-70
2021/07/09 03:39:13;;;;;;;31.07;24.10;;;16.10;99.90;;;;;;5015378;28;20183;-69
2021/07/09 03:41:39;;;;;;;39.37;25.53;;;16.20;99.90;;;;;;5014157;28;20263;-69
2021/07/09 03:44:06;;;;;;;49.20;26.97;;;16.30;99.90;;;;;;5015470;28;20764;-70
2021/07/09 03:46:31;;;;;;;35.33;25.30;;;16.30;99.90;;;;;;5014796;28;20206;-70
2021/07/09 03:48:57;;;;;;;34.03;26.33;;;16.30;99.90;;;;;;5015590;28;20168;-72
2021/07/09 03:51:23;;;;;;;32.80;26.50;;;16.40;99.90;;;;;;5013923;28;20176;-67
2021/07/09 03:53:54;;;;;;;35.77;25.83;;;16.40;99.90;;;;;;5014358;28;20557;-67
2021/07/09 03:56:20;;;;;;;36.33;25.13;;;16.40;99.90;;;;;;5013837;28;20187;-67
2021/07/09 03:58:46;;;;;;;37.67;24.90;;;16.50;99.90;;;;;;5014371;28;20522;-67
2021/07/09 04:01:11;;;;;;;35.47;24.87;;;16.50;99.90;;;;;;5014086;28;20191;-67
2021/07/09 04:03:37;;;;;;;38.17;26.53;;;16.50;99.90;;;;;;5014032;28;20780;-67
2021/07/09 04:06:02;;;;;;;31.33;24.63;;;16.50;99.90;;;;;;5013627;28;20212;-67
2021/07/09 04:08:28;;;;;;;31.80;24.37;;;16.50;99.90;;;;;;5014121;28;20541;-66
2021/07/09 04:10:54;;;;;;;42.97;24.90;;;16.50;99.90;;;;;;5013887;28;20191;-67
2021/07/09 04:13:19;;;;;;;34.90;24.93;;;16.50;99.90;;;;;;5013974;28;20238;-67
2021/07/09 04:15:45;;;;;;;30.17;25.43;;;16.60;99.90;;;;;;5013286;28;20183;-67
2021/07/09 04:18:11;;;;;;;33.57;25.73;;;16.70;99.90;;;;;;5013795;28;20179;-66
2021/07/09 04:20:37;;;;;;;32.10;25.20;;;16.70;99.90;;;;;;5013776;28;20569;-67
2021/07/09 04:23:02;;;;;;;32.43;24.77;;;16.80;99.90;;;;;;5013805;28;20195;-67
2021/07/09 04:25:28;;;;;;;34.17;25.13;;;16.70;99.90;;;;;;5013532;28;20199;-67
2021/07/09 04:27:54;;;;;;;40.30;25.53;;;16.70;99.90;;;;;;5013565;28;20199;-67
2021/07/09 04:30:20;;;;;;;35.60;26.00;;;16.70;99.90;;;;;;5013435;28;20184;-67
2021/07/09 04:32:45;;;;;;;30.73;24.83;;;16.70;99.90;;;;;;5013412;28;20196;-67
2021/07/09 04:35:12;;;;;;;37.60;25.63;;;16.80;99.90;;;;;;5013509;28;20821;-67
2021/07/09 04:37:38;;;;;;;31.17;25.17;;;16.70;99.90;;;;;;5013280;28;20239;-67
2021/07/09 04:40:05;;;;;;;33.13;25.33;;;16.70;99.90;;;;;;5013185;28;20592;-67
2021/07/09 04:42:34;;;;;;;34.40;25.07;;;16.70;99.90;;;;;;5013394;28;20172;-67
2021/07/09 04:44:59;;;;;;;30.50;22.70;;;16.80;99.90;;;;;;5013201;28;20585;-67
2021/07/09 04:47:25;;;;;;;29.00;23.97;;;16.80;99.90;;;;;;5013116;28;20279;-67
2021/07/09 04:49:51;;;;;;;30.87;24.37;;;17.00;99.90;;;;;;5013235;28;20263;-66
2021/07/09 04:52:17;;;;;;;32.83;25.13;;;17.00;99.90;;;;;;5012335;28;20210;-67
2021/07/09 04:54:42;;;;;;;33.67;25.27;;;17.00;99.90;;;;;;5013153;28;20685;-67
2021/07/09 04:57:08;;;;;;;30.47;24.77;;;17.10;99.90;;;;;;5013021;28;20234;-66
2021/07/09 04:59:33;;;;;;;31.33;23.20;;;17.20;99.90;;;;;;5012710;28;20183;-67
2021/07/09 05:01:59;;;;;;;31.97;23.17;;;17.30;99.90;;;;;;5012966;28;20184;-66
2021/07/09 05:04:25;;;;;;;33.17;22.47;;;17.30;99.90;;;;;;5012841;28;20628;-67
2021/07/09 05:06:50;;;;;;;24.57;22.03;;;17.30;99.90;;;;;;5012020;28;20204;-67
2021/07/09 05:09:16;;;;;;;28.23;23.43;;;17.30;99.90;;;;;;5012917;28;20168;-67
2021/07/09 05:11:42;;;;;;;28.17;23.33;;;17.30;99.90;;;;;;5012967;28;20168;-67
2021/07/09 05:14:07;;;;;;;30.33;22.40;;;17.20;99.90;;;;;;5012865;28;20188;-66
2021/07/09 05:16:34;;;;;;;29.17;22.63;;;17.30;99.90;;;;;;5012638;28;20238;-67
2021/07/09 05:19:01;;;;;;;29.40;24.13;;;17.20;99.90;;;;;;5011685;28;20646;-66
2021/07/09 05:21:27;;;;;;;26.47;23.67;;;17.20;99.90;;;;;;4993239;28;20176;-66
2021/07/09 05:23:54;;;;;;;26.13;23.10;;;17.30;99.90;;;;;;4992973;28;20242;-66
2021/07/09 05:26:20;;;;;;;32.73;24.10;;;17.20;99.90;;;;;;5010625;28;20235;-67
2021/07/09 05:28:45;;;;;;;30.17;24.17;;;17.20;99.90;;;;;;5012671;28;20673;-67
2021/07/09 05:31:11;;;;;;;28.57;23.63;;;17.20;99.90;;;;;;5012525;28;20183;-67
2021/07/09 05:33:37;;;;;;;33.77;26.23;;;17.20;99.90;;;;;;5012536;28;20192;-67
2021/07/09 05:36:03;;;;;;;32.03;23.83;;;17.30;99.90;;;;;;5012415;28;20195;-68
2021/07/09 05:38:28;;;;;;;32.57;24.60;;;17.30;99.90;;;;;;5012773;28;20170;-67
2021/07/09 05:40:54;;;;;;;30.10;25.07;;;17.30;99.90;;;;;;5012537;28;20180;-67
2021/07/09 05:43:20;;;;;;;32.40;24.07;;;17.40;99.90;;;;;;5012330;28;20208;-67
2021/07/09 05:45:46;;;;;;;29.90;23.63;;;17.40;99.90;;;;;;5011641;28;20210;-67
2021/07/09 05:48:12;;;;;;;34.33;25.00;;;17.50;99.90;;;;;;5012337;28;20696;-67
2021/07/09 05:50:39;;;;;;;35.97;27.40;;;17.40;99.90;;;;;;5011696;28;20164;-66
2021/07/09 05:53:04;;;;;;;33.90;25.33;;;17.50;99.90;;;;;;5012349;28;20199;-66
2021/07/09 05:55:30;;;;;;;30.47;23.90;;;17.50;99.90;;;;;;5012376;28;20176;-66
2021/07/09 05:57:55;;;;;;;34.53;25.23;;;17.40;99.90;;;;;;5010799;28;20190;-66
2021/07/09 06:00:21;;;;;;;33.40;25.50;;;17.40;99.90;;;;;;5011820;28;20206;-68
2021/07/09 06:02:47;;;;;;;35.70;27.50;;;17.50;99.90;;;;;;5012349;28;20228;-67
2021/07/09 06:05:13;;;;;;;35.70;26.40;;;17.40;99.90;;;;;;5011847;28;20271;-66
2021/07/09 06:07:39;;;;;;;33.83;25.30;;;17.40;99.90;;;;;;5012455;28;20176;-66
2021/07/09 06:10:08;;;;;;;29.67;25.10;;;17.50;99.90;;;;;;5011735;28;20168;-67
2021/07/09 06:12:33;;;;;;;35.73;25.20;;;17.50;99.90;;;;;;5011410;28;20672;-67
2021/07/09 06:14:59;;;;;;;33.43;25.83;;;17.60;99.90;;;;;;5011734;28;20180;-66
2021/07/09 06:17:24;;;;;;;29.97;24.90;;;17.60;99.90;;;;;;5011404;28;20795;-67
2021/07/09 06:19:50;;;;;;;35.20;26.50;;;17.70;99.90;;;;;;5011187;28;20184;-67
2021/07/09 06:22:16;;;;;;;31.57;25.03;;;17.80;99.90;;;;;;5011319;28;20211;-66
2021/07/09 06:24:41;;;;;;;33.00;25.47;;;17.80;99.90;;;;;;5010010;28;20172;-66
2021/07/09 06:27:07;;;;;;;30.83;24.40;;;17.80;99.90;;;;;;5009611;28;20287;-66
2021/07/09 06:29:33;;;;;;;32.77;24.67;;;17.70;99.90;;;;;;5011191;28;20188;-66
2021/07/09 06:31:59;;;;;;;28.83;23.90;;;17.80;99.90;;;;;;5011298;28;20164;-66
2021/07/09 06:34:25;;;;;;;31.47;24.60;;;17.90;99.90;;;;;;5011632;28;20291;-66
2021/07/09 06:36:50;;;;;;;31.10;24.77;;;17.90;99.90;;;;;;5010567;28;20191;-66
2021/07/09 06:39:16;;;;;;;27.87;24.03;;;18.00;99.90;;;;;;5014989;28;20187;-66
2021/07/09 06:41:45;;;;;;;28.17;24.20;;;18.10;99.90;;;;;;5015300;28;20190;-66
2021/07/09 06:44:11;;;;;;;30.80;24.40;;;18.10;99.90;;;;;;5012074;28;20246;-65
2021/07/09 06:46:36;;;;;;;29.53;23.37;;;18.10;99.90;;;;;;5014801;28;20244;-65
2021/07/09 06:49:02;;;;;;;26.63;21.80;;;18.10;99.90;;;;;;5015137;28;20192;-65
2021/07/09 06:51:28;;;;;;;29.97;22.73;;;18.10;99.90;;;;;;5015127;28;20176;-65
2021/07/09 06:53:53;;;;;;;27.27;22.87;;;18.20;99.90;;;;;;5014570;28;20196;-65
2021/07/09 06:56:19;;;;;;;26.50;21.70;;;18.30;99.90;;;;;;5015189;28;20185;-66
2021/07/09 06:58:44;;;;;;;24.47;20.00;;;18.40;99.90;;;;;;5015072;28;20180;-66
2021/07/09 07:01:10;;;;;;;24.90;20.17;;;18.50;99.90;;;;;;4995611;28;20564;-66
2021/07/09 07:03:35;;;;;;;24.17;20.40;;;18.50;99.90;;;;;;4999606;28;20200;-65
2021/07/09 07:06:02;;;;;;;24.13;21.37;;;18.50;99.90;;;;;;5014163;28;20196;-65
2021/07/09 07:08:27;;;;;;;23.53;20.93;;;18.50;99.90;;;;;;5015110;28;20729;-66
2021/07/09 07:10:55;;;;;;;23.97;19.90;;;18.60;99.90;;;;;;5023665;28;20218;-66
2021/07/09 07:13:22;;;;;;;25.50;21.47;;;18.60;99.90;;;;;;5034717;28;20199;-66
2021/07/09 07:15:48;;;;;;;24.73;22.03;;;18.80;99.90;;;;;;5018908;28;20180;-66
2021/07/09 07:18:14;;;;;;;22.27;19.60;;;18.90;99.90;;;;;;5014879;28;20255;-66
2021/07/09 07:20:41;;;;;;;23.53;18.80;;;19.10;99.90;;;;;;5014549;28;20184;-66
2021/07/09 07:23:08;;;;;;;23.07;19.30;;;19.20;99.90;;;;;;5014793;28;20247;-66
2021/07/09 07:25:34;;;;;;;22.57;20.17;;;19.40;99.90;;;;;;5013879;28;20200;-66
2021/07/09 07:28:00;;;;;;;24.80;19.83;;;19.60;99.90;;;;;;5012309;28;20546;-66
2021/07/09 07:30:27;;;;;;;23.27;19.90;;;19.60;99.90;;;;;;5014159;28;20176;-66
2021/07/09 07:32:53;;;;;;;22.23;19.93;;;19.50;99.90;;;;;;5013971;28;20571;-66
2021/07/09 07:35:19;;;;;;;22.57;20.27;;;19.60;99.90;;;;;;5014462;28;20330;-66
2021/07/09 07:37:45;;;;;;;22.97;19.20;;;19.90;99.90;;;;;;5014020;28;20180;-66
2021/07/09 07:40:11;;;;;;;22.40;20.03;;;20.00;99.90;;;;;;5013231;28;20572;-66
2021/07/09 07:42:36;;;;;;;21.03;18.17;;;20.00;99.90;;;;;;5014331;28;20251;-65
2021/07/09 07:45:03;;;;;;;21.80;18.80;;;19.80;99.90;;;;;;5014085;28;20669;-66
2021/07/09 07:47:29;;;;;;;18.93;16.93;;;19.70;99.90;;;;;;5014255;28;20172;-66
2021/07/09 07:49:55;;;;;;;22.77;17.97;;;19.60;99.90;;;;;;5012061;28;20191;-65
2021/07/09 07:52:21;;;;;;;20.17;18.07;;;19.40;99.90;;;;;;5014249;28;20184;-66
2021/07/09 07:54:46;;;;;;;20.07;18.03;;;19.40;99.90;;;;;;5013284;28;20208;-65
2021/07/09 07:57:12;;;;;;;22.03;18.87;;;19.20;99.90;;;;;;5014111;28;20263;-65
2021/07/09 07:59:38;;;;;;;21.50;19.17;;;19.10;99.90;;;;;;5013808;28;20184;-66
2021/07/09 08:02:03;;;;;;;23.03;20.03;;;19.00;99.90;;;;;;5014276;28;20868;-66
2021/07/09 08:04:29;;;;;;;21.07;18.60;;;19.20;99.90;;;;;;5013858;28;20219;-66
2021/07/09 08:06:55;;;;;;;20.40;18.33;;;19.30;99.90;;;;;;5013833;28;20208;-65
2021/07/09 08:09:20;;;;;;;23.47;20.27;;;19.40;99.90;;;;;;5013840;28;20559;-66
2021/07/09 08:11:46;;;;;;;20.70;17.60;;;19.70;99.90;;;;;;5014061;28;20180;-65
2021/07/09 08:14:11;;;;;;;23.13;19.13;;;19.60;99.90;;;;;;5013540;28;20207;-65
2021/07/09 08:16:37;;;;;;;20.70;17.37;;;19.50;99.90;;;;;;5014201;28;20191;-66
2021/07/09 08:19:03;;;;;;;23.03;19.13;;;19.60;99.90;;;;;;5017152;28;20192;-66
2021/07/09 08:21:28;;;;;;;19.07;17.17;;;19.80;99.90;;;;;;5011911;28;20242;-65
2021/07/09 08:23:54;;;;;;;21.73;16.40;;;20.00;99.90;;;;;;5013197;28;20815;-66
2021/07/09 08:26:20;;;;;;;17.90;16.03;;;20.00;99.90;;;;;;5013413;28;20249;-65
2021/07/09 08:28:46;;;;;;;20.13;17.93;;;20.00;99.90;;;;;;5013402;28;20176;-65
2021/07/09 08:31:12;;;;;;;17.13;15.20;;;20.20;99.90;;;;;;5013381;28;20184;-65
2021/07/09 08:33:37;;;;;;;17.17;15.43;;;20.40;99.90;;;;;;5013287;28;20203;-66
2021/07/09 08:36:03;;;;;;;17.53;15.63;;;20.70;99.90;;;;;;5013234;28;20263;-66
2021/07/09 08:38:29;;;;;;;17.00;15.20;;;21.10;99.90;;;;;;5010669;28;20207;-65
2021/07/09 08:40:54;;;;;;;17.97;15.47;;;21.20;99.90;;;;;;5011616;28;20815;-66
2021/07/09 08:43:20;;;;;;;19.43;16.93;;;21.20;99.90;;;;;;5014618;28;20254;-66
2021/07/09 08:45:45;;;;;;;16.63;14.90;;;21.40;99.90;;;;;;5014176;28;20208;-66
2021/07/09 08:48:14;;;;;;;17.67;15.87;;;21.50;99.90;;;;;;5020266;28;20873;-66
2021/07/09 08:50:40;;;;;;;16.70;14.57;;;21.20;99.90;;;;;;5013901;28;20238;-66
2021/07/09 08:53:05;;;;;;;16.70;14.47;;;21.00;99.90;;;;;;5015662;28;20204;-66
2021/07/09 08:55:31;;;;;;;15.17;13.67;;;20.80;99.90;;;;;;5012942;28;20211;-66
2021/07/09 08:57:57;;;;;;;16.10;14.40;;;20.70;99.90;;;;;;5011850;28;20195;-66
2021/07/09 09:00:26;;;;;;;14.90;12.90;;;20.70;99.90;;;;;;5016975;28;20179;-66
2021/07/09 09:02:52;;;;;;;14.30;12.93;;;20.70;99.90;;;;;;5017797;28;20631;-66
2021/07/09 09:05:22;;;;;;;16.00;14.00;;;20.80;99.90;;;;;;5011698;28;20188;-66
2021/07/09 09:07:58;;;;;;;14.27;12.77;;;20.70;99.90;;;;;;5012386;28;20299;-66
2021/07/09 09:10:40;;;;;;;14.37;12.90;;;20.70;99.90;;;;;;4993397;28;20585;-66
2021/07/09 09:13:07;;;;;;;13.50;12.20;;;20.70;99.90;;;;;;5006197;28;20204;-65
2021/07/09 09:15:35;;;;;;;16.20;14.70;;;20.50;99.90;;;;;;5011981;28;20180;-66
2021/07/09 09:18:29;;;;;;;17.50;13.77;;;20.30;99.90;;;;;;5012204;28;20227;-66
2021/07/09 09:21:07;;;;;;;17.83;14.30;;;20.20;99.90;;;;;;5011720;28;20195;-66
2021/07/09 09:24:01;;;;;;;16.93;15.30;;;20.10;99.90;;;;;;5087480;28;20934;-65
2021/07/09 09:26:50;;;;;;;16.63;14.90;;;19.90;99.90;;;;;;5061941;28;20954;-65
2021/07/09 09:29:34;;;;;;;16.27;12.87;;;19.90;99.90;;;;;;5058153;28;20178;-65
2021/07/09 09:32:09;;;;;;;16.37;12.97;;;19.60;99.90;;;;;;5067913;28;20167;-65
2021/07/09 09:35:01;;;;;;;17.57;15.87;;;19.50;99.90;;;;;;5049104;28;20225;-65
2021/07/09 09:37:29;;;;;;;15.53;12.27;;;19.60;99.90;;;;;;5048985;28;20198;-65
2021/07/09 09:39:55;;;;;;;15.87;13.90;;;20.00;99.90;;;;;;5068306;28;20177;-66
2021/07/09 09:42:24;;;;;;;14.80;13.20;;;20.40;99.90;;;;;;5049916;28;20214;-65
2021/07/09 09:45:00;;;;;;;16.50;13.37;;;20.50;99.90;;;;;;5058295;28;20174;-65
2021/07/09 09:47:29;;;;;;;15.53;13.93;;;20.50;99.90;;;;;;5068364;28;20233;-65
2021/07/09 09:50:00;;;;;;;16.50;13.23;;;20.50;99.90;;;;;;5057827;28;20186;-65
2021/07/09 09:52:53;;;;;;;15.10;13.63;;;20.50;99.90;;;;;;5056422;28;20186;-66
2021/07/09 09:55:32;;;;;;;15.30;13.87;;;20.90;99.90;;;;;;5068220;28;20540;-65
2021/07/09 09:58:13;;;;;;;13.27;11.93;;;21.10;99.90;;;;;;5055424;28;20261;-66
2021/07/09 10:00:40;;;;;;;15.15;13.65;;;21.40;99.90;;;;;;5048106;28;20237;-65
2021/07/09 10:03:07;;;;;;;16.08;13.95;;;21.50;99.90;;;;;;5060884;28;20210;-65
2021/07/09 10:05:38;;;;;;;13.98;12.18;;;21.80;99.90;;;;;;5068125;28;20182;-65
2021/07/09 10:08:11;;;;;;;12.07;10.85;;;22.70;99.90;;;;;;5054955;28;20221;-65
2021/07/09 10:10:38;;;;;;;13.68;12.38;;;23.30;99.90;;;;;;5048052;28;20175;-66
2021/07/09 10:13:05;;;;;;;12.88;11.57;;;23.20;99.90;;;;;;5059288;28;20220;-65
2021/07/09 10:15:31;;;;;;;12.80;11.55;;;23.10;99.90;;;;;;5067793;28;20201;-65
2021/07/09 10:17:58;;;;;;;13.15;11.77;;;23.20;99.90;;;;;;5056720;28;20210;-65
2021/07/09 10:20:24;;;;;;;12.63;11.38;;;23.40;99.90;;;;;;5048016;28;20175;-65
2021/07/09 10:22:51;;;;;;;13.15;11.07;;;23.50;99.90;;;;;;5059398;28;20229;-65
2021/07/09 10:25:18;;;;;;;12.02;10.82;;;23.80;99.90;;;;;;5067281;28;20762;-65
2021/07/09 10:27:44;;;;;;;11.27;9.82;;;24.30;99.90;;;;;;5064243;28;20178;-65
2021/07/09 10:30:12;;;;;;;11.50;10.40;;;24.50;99.90;;;;;;5067565;28;20201;-65
2021/07/09 10:32:46;;;;;;;15.88;11.23;;;25.10;99.90;;;;;;5050362;28;20290;-65
2021/07/09 10:35:33;;;;;;;12.50;11.30;;;25.80;99.90;;;;;;5034077;28;20175;-66
2021/07/09 10:38:14;;;;;;;11.25;10.15;;;26.50;99.90;;;;;;5033573;28;20195;-66
2021/07/09 10:40:41;;;;;;;11.45;10.32;;;26.90;99.90;;;;;;5034430;28;20175;-65
2021/07/09 10:43:10;;;;;;;12.43;11.18;;;27.30;99.90;;;;;;5056321;22;20269;-66
2021/07/09 10:45:40;;;;;;;12.52;11.38;;;26.90;99.90;;;;;;5034373;28;20251;-66
2021/07/09 10:48:13;;;;;;;12.93;11.70;;;26.40;99.90;;;;;;5020767;28;20698;-66
2021/07/09 10:50:50;;;;;;;15.27;13.80;;;25.70;99.90;;;;;;5034272;28;20174;-66
2021/07/09 10:53:17;;;;;;;12.77;11.45;;;25.30;99.90;;;;;;5014360;28;20723;-65
2021/07/09 10:55:52;;;;;;;12.85;11.68;;;25.20;99.90;;;;;;5014104;28;20172;-66
2021/07/09 10:58:23;;;;;;;12.00;10.75;;;25.10;99.90;;;;;;5031659;28;20189;-65
2021/07/09 11:00:54;;;;;;;13.02;11.65;;;25.00;99.90;;;;;;5033811;28;20179;-66
2021/07/09 11:03:23;;;;;;;13.80;12.38;;;24.80;99.90;;;;;;5033235;28;20302;-66
2021/07/09 11:06:12;;;;;;;14.52;12.15;;;24.80;99.90;;;;;;5033498;28;20222;-66
2021/07/09 11:09:13;;;;;;;13.52;11.25;;;24.70;99.90;;;;;;5014017;28;20172;-65
2021/07/09 11:11:43;;;;;;;12.07;10.80;;;24.50;99.90;;;;;;5013160;28;20675;-65
2021/07/09 11:14:10;;;;;;;11.48;10.35;;;24.50;99.90;;;;;;5032280;28;20665;-65
2021/07/09 11:16:46;;;;;;;12.32;10.60;;;24.60;99.90;;;;;;5033110;28;20188;-65
2021/07/09 11:19:15;;;;;;;12.70;11.57;;;25.40;99.90;;;;;;5033541;28;20171;-66
2021/07/09 11:21:42;;;;;;;11.90;10.80;;;26.10;99.90;;;;;;5031705;28;20609;-65
2021/07/09 11:24:36;;;;;;;10.35;9.45;;;26.50;99.90;;;;;;5033312;28;20187;-66
2021/07/09 11:27:07;;;;;;;10.77;9.77;;;27.00;99.90;;;;;;5023525;28;20245;-65
2021/07/09 11:29:44;;;;;;;9.45;8.65;;;27.60;99.90;;;;;;5033476;28;20633;-66
2021/07/09 11:32:20;;;;;;;10.98;9.95;;;28.30;99.90;;;;;;5031942;28;20797;-65
2021/07/09 11:34:56;;;;;;;9.75;8.90;;;28.60;99.90;;;;;;5033464;28;20203;-66
2021/07/09 11:37:28;;;;;;;9.90;8.93;;;28.50;99.90;;;;;;5032734;28;20178;-66
2021/07/09 11:39:57;;;;;;;10.70;8.63;;;28.00;99.90;;;;;;5033170;28;20250;-66
2021/07/09 11:42:26;;;;;;;9.45;8.55;;;27.40;99.90;;;;;;5032902;28;20203;-66
2021/07/09 11:44:57;;;;;;;8.75;7.95;;;27.40;99.90;;;;;;5031261;28;20199;-66
2021/07/09 11:47:27;;;;;;;8.77;7.93;;;27.00;99.90;;;;;;5032339;28;20215;-66
2021/07/09 11:50:05;;;;;;;9.00;8.15;;;26.90;99.90;;;;;;5032979;28;20217;-66
2021/07/09 11:52:38;;;;;;;9.85;9.00;;;26.70;99.90;;;;;;5032757;28;20194;-66
2021/07/09 11:55:07;;;;;;;8.52;7.82;;;26.80;99.90;;;;;;5032845;28;20171;-66
2021/07/09 11:57:40;;;;;;;9.05;8.15;;;27.00;99.90;;;;;;5032301;28;20548;-66
2021/07/09 12:00:10;;;;;;;8.05;7.35;;;27.20;99.90;;;;;;5032292;28;20179;-65
2021/07/09 12:02:35;;;;;;;11.10;7.53;;;27.10;99.90;;;;;;5032573;28;20282;-66
2021/07/09 12:05:08;;;;;;;9.05;8.35;;;27.50;99.90;;;;;;5032477;28;20266;-66
2021/07/09 12:07:39;;;;;;;8.07;7.47;;;27.80;99.90;;;;;;5032674;28;20171;-66
2021/07/09 12:10:13;;;;;;;7.30;6.70;;;27.70;99.90;;;;;;5032277;28;20579;-65
2021/07/09 12:12:58;;;;;;;7.40;6.65;;;27.20;99.90;;;;;;5032415;28;20179;-65
2021/07/09 12:15:25;;;;;;;7.90;7.20;;;26.70;99.90;;;;;;5032261;28;20241;-65
2021/07/09 12:18:03;;;;;;;7.40;6.82;;;26.30;99.90;;;;;;5032097;28;20210;-65
2021/07/09 12:20:41;;;;;;;7.40;6.80;;;25.90;99.90;;;;;;5032111;28;20267;-65
2021/07/09 12:23:11;;;;;;;7.95;6.07;;;25.60;99.90;;;;;;5032048;28;20238;-66
2021/07/09 12:25:42;;;;;;;7.53;7.03;;;25.40;99.90;;;;;;5031950;28;20206;-66
2021/07/09 12:28:10;;;;;;;7.47;6.97;;;25.90;99.90;;;;;;5032055;28;20230;-66
2021/07/09 12:30:41;;;;;;;7.25;6.65;;;26.30;99.90;;;;;;5031845;28;20180;-65
2021/07/09 12:33:26;;;;;;;8.13;7.43;;;26.10;99.90;;;;;;5031227;28;20191;-65